Time,TemperatureF,DewpointF,PressureIn,WindDirection,WindDirectionDegrees,WindSpeedMPH,WindSpeedGustMPH,Humidity,HourlyPrecipIn,Conditions,Clouds,dailyrainin,SoftwareType,DateUTC
2013-04-11 00:03:00,40.5,-8.9,29.83,WNW,293,0.0,1.1,12,0.00,,,0.00,WUHU216HW,2013-04-11 04:03:00,
2013-04-11 00:08:00,40.3,-9.1,29.83,NW,315,0.2,0.4,12,0.00,,,0.00,WUHU216HW,2013-04-11 04:08:00,
2013-04-11 00:13:00,40.3,-10.4,29.83,NNW,338,0.4,0.9,11,0.00,,,0.00,WUHU216HW,2013-04-11 04:13:00,
2013-04-11 00:18:00,40.3,-10.4,29.83,NNW,338,0.0,0.9,11,0.00,,,0.00,WUHU216HW,2013-04-11 04:18:00,
2013-04-11 00:23:00,40.3,-9.1,29.83,NNW,338,0.0,0.7,12,0.00,,,0.00,WUHU216HW,2013-04-11 04:23:00,
2013-04-11 00:28:00,40.3,-9.1,29.83,NNW,338,0.0,0.0,12,0.00,,,0.00,WUHU216HW,2013-04-11 04:28:00,
2013-04-11 00:33:00,40.1,-7.7,29.83,NNW,338,0.0,0.0,13,0.00,,,0.00,WUHU216HW,2013-04-11 04:33:00,
2013-04-11 00:38:00,40.1,-6.3,29.83,NNW,338,0.0,0.0,14,0.00,,,0.00,WUHU216HW,2013-04-11 04:38:00,
2013-04-11 00:43:00,40.1,-6.3,29.84,NNW,338,0.0,0.0,14,0.00,,,0.00,WUHU216HW,2013-04-11 04:43:00,
2013-04-11 00:48:00,40.1,-6.3,29.84,NNW,338,0.0,0.0,14,0.00,,,0.00,WUHU216HW,2013-04-11 04:48:00,
2013-04-11 00:53:00,40.0,-6.5,29.84,NNW,338,0.0,0.0,14,0.00,,,0.00,WUHU216HW,2013-04-11 04:53:00,
2013-04-11 00:58:00,40.0,-5.0,29.84,NNW,338,0.7,0.7,15,0.00,,,0.00,WUHU216HW,2013-04-11 04:58:00,
2013-04-11 01:03:00,40.0,-5.0,29.85,NNW,338,0.0,0.7,15,0.00,,,0.00,WUHU216HW,2013-04-11 05:03:00,
2013-04-11 01:08:00,40.0,-5.0,29.85,NNW,338,0.0,0.7,15,0.00,,,0.00,WUHU216HW,2013-04-11 05:08:00,
2013-04-11 01:13:00,39.8,-5.2,29.85,NNW,338,0.0,0.0,15,0.00,,,0.00,WUHU216HW,2013-04-11 05:13:00,
2013-04-11 01:18:00,39.8,-5.2,29.84,NNW,338,0.0,0.0,15,0.00,,,0.00,WUHU216HW,2013-04-11 05:18:00,
2013-04-11 01:23:00,39.8,-5.2,29.84,NNW,338,0.0,0.0,15,0.00,,,0.00,WUHU216HW,2013-04-11 05:23:00,
2013-04-11 01:28:00,39.8,-5.2,29.83,NNW,338,0.0,0.0,15,0.00,,,0.00,WUHU216HW,2013-04-11 05:28:00,
2013-04-11 01:33:00,39.6,-5.4,29.83,NNW,338,0.0,0.2,15,0.00,,,0.00,WUHU216HW,2013-04-11 05:33:00,
2013-04-11 01:39:00,39.6,-5.4,29.82,NNW,338,0.0,0.7,15,0.00,,,0.00,WUHU216HW,2013-04-11 05:39:00,
2013-04-11 01:44:00,39.6,-5.4,29.82,NNW,338,0.0,0.7,15,0.00,,,0.00,WUHU216HW,2013-04-11 05:44:00,
2013-04-11 01:49:00,39.4,-4.0,29.82,NNW,338,0.0,0.0,16,0.00,,,0.00,WUHU216HW,2013-04-11 05:49:00,
2013-04-11 01:54:00,39.4,-4.0,29.82,NNW,338,0.0,0.0,16,0.00,,,0.00,WUHU216HW,2013-04-11 05:54:00,
2013-04-11 01:59:00,39.2,-4.2,29.81,NNW,338,0.0,0.0,16,0.00,,,0.00,WUHU216HW,2013-04-11 05:59:00,
2013-04-11 02:04:00,39.4,-4.0,29.81,NNW,338,0.0,0.0,16,0.00,,,0.00,WUHU216HW,2013-04-11 06:04:00,
2013-04-11 02:09:00,39.2,-4.2,29.81,NNW,338,0.0,0.0,16,0.00,,,0.00,WUHU216HW,2013-04-11 06:09:00,
2013-04-11 02:14:00,39.2,-5.7,29.81,NNW,338,0.0,0.0,15,0.00,,,0.00,WUHU216HW,2013-04-11 06:14:00,
2013-04-11 02:19:00,39.2,-5.7,29.81,NNW,338,0.2,0.2,15,0.00,,,0.00,WUHU216HW,2013-04-11 06:19:00,
2013-04-11 02:24:00,39.2,-5.7,29.81,NW,315,0.7,0.9,15,0.00,,,0.00,WUHU216HW,2013-04-11 06:24:00,
2013-04-11 02:29:00,39.2,-7.1,29.81,NW,315,0.4,0.9,14,0.00,,,0.00,WUHU216HW,2013-04-11 06:29:00,
2013-04-11 02:34:00,39.2,-9.9,29.81,NNW,338,0.0,0.9,12,0.00,,,0.00,WUHU216HW,2013-04-11 06:34:00,
2013-04-11 02:39:00,39.4,-6.9,29.80,NW,315,1.1,1.1,14,0.00,,,0.00,WUHU216HW,2013-04-11 06:39:00,
2013-04-11 02:44:00,39.4,-9.8,29.80,NW,315,0.7,1.1,12,0.00,,,0.00,WUHU216HW,2013-04-11 06:44:00,
2013-04-11 02:49:00,39.6,-11.1,29.80,NW,315,0.7,1.1,11,0.00,,,0.00,WUHU216HW,2013-04-11 06:49:00,
2013-04-11 02:54:00,39.6,-12.5,29.81,NW,315,1.1,1.1,10,0.00,,,0.00,WUHU216HW,2013-04-11 06:54:00,
2013-04-11 02:59:00,39.4,-12.6,29.81,NNW,338,0.4,1.1,10,0.00,,,0.00,WUHU216HW,2013-04-11 06:59:00,
2013-04-11 03:04:00,39.4,-11.2,29.81,NW,315,0.2,1.1,11,0.00,,,0.00,WUHU216HW,2013-04-11 07:04:00,
2013-04-11 03:09:00,39.4,-11.2,29.81,NW,315,0.0,0.7,11,0.00,,,0.00,WUHU216HW,2013-04-11 07:09:00,
2013-04-11 03:14:00,39.4,-11.2,29.81,NW,315,0.0,0.7,11,0.00,,,0.00,WUHU216HW,2013-04-11 07:14:00,
2013-04-11 03:19:00,39.2,-9.9,29.81,NW,315,0.0,0.0,12,0.00,,,0.00,WUHU216HW,2013-04-11 07:19:00,
2013-04-11 03:24:00,39.2,-9.9,29.80,NW,315,0.0,0.0,12,0.00,,,0.00,WUHU216HW,2013-04-11 07:24:00,
2013-04-11 03:29:00,39.2,-9.9,29.81,NW,315,0.4,0.4,12,0.00,,,0.00,WUHU216HW,2013-04-11 07:29:00,
2013-04-11 03:34:00,39.2,-11.3,29.81,NW,315,0.2,0.9,11,0.00,,,0.00,WUHU216HW,2013-04-11 07:34:00,
2013-04-11 03:39:00,39.1,-10.1,29.81,NW,315,0.2,0.9,12,0.00,,,0.00,WUHU216HW,2013-04-11 07:39:00,
2013-04-11 03:44:00,39.1,-11.5,29.82,NW,315,0.4,0.7,11,0.00,,,0.00,WUHU216HW,2013-04-11 07:44:00,
2013-04-11 03:49:00,39.1,-10.1,29.81,NW,315,0.0,0.7,12,0.00,,,0.00,WUHU216HW,2013-04-11 07:49:00,
2013-04-11 03:54:00,38.9,-10.3,29.81,NW,315,0.0,0.4,12,0.00,,,0.00,WUHU216HW,2013-04-11 07:54:00,
2013-04-11 03:59:00,38.9,-10.3,29.81,NW,315,0.0,0.4,12,0.00,,,0.00,WUHU216HW,2013-04-11 07:59:00,
2013-04-11 04:04:00,38.9,-10.3,29.81,NW,315,0.0,0.2,12,0.00,,,0.00,WUHU216HW,2013-04-11 08:04:00,
2013-04-11 04:09:00,38.9,-10.3,29.82,NNW,338,0.4,0.7,12,0.00,,,0.00,WUHU216HW,2013-04-11 08:09:00,
2013-04-11 04:14:00,38.9,-11.6,29.82,NNW,338,0.4,0.7,11,0.00,,,0.00,WUHU216HW,2013-04-11 08:14:00,
2013-04-11 04:19:00,38.9,-13.0,29.82,NNW,338,0.4,0.7,10,0.00,,,0.00,WUHU216HW,2013-04-11 08:19:00,
2013-04-11 04:25:00,39.1,-13.0,29.83,NNW,338,0.9,1.3,9,0.00,,,0.00,WUHU216HW,2013-04-11 08:25:00,
2013-04-11 04:30:00,39.1,-13.0,29.83,NNW,338,0.4,1.3,9,0.00,,,0.00,WUHU216HW,2013-04-11 08:30:00,
2013-04-11 04:35:00,38.9,-13.0,29.83,NNW,338,0.9,1.1,9,0.00,,,0.00,WUHU216HW,2013-04-11 08:35:00,
2013-04-11 04:40:00,38.9,-13.0,29.84,NNW,338,1.3,1.3,9,0.00,,,0.00,WUHU216HW,2013-04-11 08:40:00,
2013-04-11 04:45:00,38.9,-13.0,29.84,NNW,338,0.4,1.3,9,0.00,,,0.00,WUHU216HW,2013-04-11 08:45:00,
2013-04-11 04:50:00,38.9,-13.0,29.84,NNW,338,0.4,1.3,9,0.00,,,0.00,WUHU216HW,2013-04-11 08:50:00,
2013-04-11 04:55:00,38.7,-13.2,29.84,NW,315,0.4,1.1,10,0.00,,,0.00,WUHU216HW,2013-04-11 08:55:00,
2013-04-11 05:00:00,38.7,-13.2,29.84,NW,315,0.2,1.1,10,0.00,,,0.00,WUHU216HW,2013-04-11 09:00:00,
2013-04-11 05:05:00,38.5,-13.3,29.84,NW,315,0.0,0.4,10,0.00,,,0.00,WUHU216HW,2013-04-11 09:05:00,
2013-04-11 05:10:00,38.5,-13.3,29.83,NW,315,0.0,0.2,10,0.00,,,0.00,WUHU216HW,2013-04-11 09:10:00,
2013-04-11 05:15:00,38.5,-13.3,29.84,NW,315,0.0,0.0,10,0.00,,,0.00,WUHU216HW,2013-04-11 09:15:00,
2013-04-11 05:20:00,38.5,-12.0,29.84,NW,315,0.0,0.0,11,0.00,,,0.00,WUHU216HW,2013-04-11 09:20:00,
2013-04-11 05:25:00,38.3,-12.0,29.84,NW,315,0.0,0.0,11,0.00,,,0.00,WUHU216HW,2013-04-11 09:25:00,
2013-04-11 05:30:00,38.2,-12.2,29.84,NW,315,0.0,0.0,11,0.00,,,0.00,WUHU216HW,2013-04-11 09:30:00,
2013-04-11 05:35:00,38.0,-11.0,29.85,NW,315,0.0,0.0,12,0.00,,,0.00,WUHU216HW,2013-04-11 09:35:00,
2013-04-11 05:40:00,37.8,-11.1,29.85,NW,315,0.0,0.0,12,0.00,,,0.00,WUHU216HW,2013-04-11 09:40:00,
2013-04-11 05:45:00,37.8,-9.6,29.85,NW,315,0.0,0.0,13,0.00,,,0.00,WUHU216HW,2013-04-11 09:45:00,
2013-04-11 05:50:00,37.6,-8.4,29.84,NW,315,0.0,0.0,14,0.00,,,0.00,WUHU216HW,2013-04-11 09:50:00,
2013-04-11 05:55:00,37.4,-8.5,29.85,NW,315,1.1,1.1,14,0.00,,,0.00,WUHU216HW,2013-04-11 09:55:00,
2013-04-11 06:00:00,37.4,-11.3,29.86,NW,315,0.4,1.1,12,0.00,,,0.00,WUHU216HW,2013-04-11 10:00:00,
2013-04-11 06:05:00,37.4,-11.3,29.86,NW,315,0.0,1.1,12,0.00,,,0.00,WUHU216HW,2013-04-11 10:05:00,
2013-04-11 06:10:00,37.3,-11.5,29.86,NNE,23,0.0,0.7,12,0.00,,,0.00,WUHU216HW,2013-04-11 10:10:00,
2013-04-11 06:15:00,37.3,-14.4,29.87,NW,315,3.4,3.8,10,0.00,,,0.00,WUHU216HW,2013-04-11 10:15:00,
2013-04-11 06:20:00,37.6,-14.0,29.87,NNW,338,1.3,3.8,9,0.00,,,0.00,WUHU216HW,2013-04-11 10:20:00,
2013-04-11 06:25:00,37.4,-14.2,29.88,North,0,1.3,3.4,9,0.00,,,0.00,WUHU216HW,2013-04-11 10:25:00,
2013-04-11 06:30:00,37.4,-14.2,29.88,NNW,338,2.0,2.5,9,0.00,,,0.00,WUHU216HW,2013-04-11 10:30:00,
2013-04-11 06:35:00,37.6,14.9,29.88,WSW,248,2.5,7.8,39,0.00,,,0.00,WUHU216HW,2013-04-11 10:35:00,
2013-04-11 06:40:00,37.8,20.9,29.89,North,0,3.4,7.8,50,0.00,,,0.00,WUHU216HW,2013-04-11 10:40:00,
2013-04-11 06:45:00,37.8,21.7,29.90,North,0,4.7,8.9,52,0.00,,,0.00,WUHU216HW,2013-04-11 10:45:00,
2013-04-11 06:50:00,37.8,27.1,29.90,North,0,4.3,8.9,65,0.00,,,0.00,WUHU216HW,2013-04-11 10:50:00,
2013-04-11 06:55:00,37.6,27.6,29.90,North,0,1.3,8.3,67,0.00,,,0.00,WUHU216HW,2013-04-11 10:55:00,
2013-04-11 07:00:00,37.4,27.5,29.90,North,0,2.7,8.3,67,0.00,,,0.00,WUHU216HW,2013-04-11 11:00:00,
2013-04-11 07:05:00,37.1,29.3,29.90,North,0,3.8,8.3,73,0.00,,,0.00,WUHU216HW,2013-04-11 11:05:00,
2013-04-11 07:10:00,36.4,28.5,29.90,North,0,5.1,10.1,73,0.00,,,0.00,WUHU216HW,2013-04-11 11:10:00,
2013-04-11 07:15:00,36.0,28.2,29.91,NNW,338,5.4,10.1,73,0.00,,,0.00,WUHU216HW,2013-04-11 11:15:00,
2013-04-11 07:21:00,36.0,28.2,29.91,NNW,338,5.8,7.6,73,0.00,,,0.00,WUHU216HW,2013-04-11 11:21:00,
2013-04-11 07:26:00,35.8,28.0,29.91,North,0,3.4,8.7,73,0.00,,,0.00,WUHU216HW,2013-04-11 11:26:00,
2013-04-11 07:31:00,35.8,28.0,29.92,North,0,3.8,8.7,73,0.00,,,0.00,WUHU216HW,2013-04-11 11:31:00,
2013-04-11 07:36:00,36.0,28.2,29.92,North,0,3.4,9.4,73,0.00,,,0.00,WUHU216HW,2013-04-11 11:36:00,
2013-04-11 07:41:00,36.2,28.4,29.92,North,0,2.5,9.4,73,0.00,,,0.00,WUHU216HW,2013-04-11 11:41:00,
2013-04-11 07:47:00,36.4,28.5,29.93,NE,45,1.6,5.6,73,0.00,,,0.00,WUHU216HW,2013-04-11 11:47:00,
2013-04-11 07:52:00,36.5,28.7,29.93,North,0,1.8,5.4,73,0.00,,,0.00,WUHU216HW,2013-04-11 11:52:00,
2013-04-11 07:57:00,36.5,28.1,29.94,North,0,2.0,5.4,71,0.00,,,0.00,WUHU216HW,2013-04-11 11:57:00,
2013-04-11 08:02:00,36.5,28.4,29.94,NNE,23,3.4,5.4,72,0.00,,,0.00,WUHU216HW,2013-04-11 12:02:00,
2013-04-11 08:07:00,36.9,28.7,29.94,North,0,2.0,4.3,72,0.00,,,0.00,WUHU216HW,2013-04-11 12:07:00,
2013-04-11 08:12:00,37.1,28.6,29.94,North,0,2.5,5.1,71,0.00,,,0.00,WUHU216HW,2013-04-11 12:12:00,
2013-04-11 08:17:00,36.9,26.2,29.94,North,0,4.5,6.3,65,0.00,,,0.00,WUHU216HW,2013-04-11 12:17:00,
2013-04-11 08:22:00,36.5,25.5,29.94,NNW,338,4.0,6.3,64,0.00,,,0.00,WUHU216HW,2013-04-11 12:22:00,
2013-04-11 08:27:00,36.7,25.3,29.94,North,0,4.5,5.4,63,0.00,,,0.00,WUHU216HW,2013-04-11 12:27:00,
2013-04-11 08:32:00,36.7,24.9,29.94,NNW,338,2.2,8.3,62,0.00,,,0.00,WUHU216HW,2013-04-11 12:32:00,
2013-04-11 08:37:00,36.7,24.9,29.95,North,0,3.6,8.3,62,0.00,,,0.00,WUHU216HW,2013-04-11 12:37:00,
2013-04-11 08:42:00,36.7,25.3,29.94,North,0,3.6,6.0,63,0.00,,,0.00,WUHU216HW,2013-04-11 12:42:00,
2013-04-11 08:47:00,37.1,25.3,29.94,North,0,5.8,6.3,62,0.00,,,0.00,WUHU216HW,2013-04-11 12:47:00,
2013-04-11 08:52:00,36.7,24.6,29.94,NNW,338,1.6,10.5,61,0.00,,,0.00,WUHU216HW,2013-04-11 12:52:00,
2013-04-11 08:57:00,36.9,25.1,29.94,North,0,4.5,10.5,62,0.00,,,0.00,WUHU216HW,2013-04-11 12:57:00,
2013-04-11 09:02:00,36.9,25.1,29.94,North,0,4.9,6.0,62,0.00,,,0.00,WUHU216HW,2013-04-11 13:02:00,
2013-04-11 09:07:00,36.7,24.2,29.95,North,0,2.7,6.0,60,0.00,,,0.00,WUHU216HW,2013-04-11 13:07:00,
2013-04-11 09:12:00,37.1,24.5,29.95,North,0,4.7,6.0,60,0.00,,,0.00,WUHU216HW,2013-04-11 13:12:00,
2013-04-11 09:17:00,37.6,25.4,29.95,North,0,2.7,5.4,61,0.00,,,0.00,WUHU216HW,2013-04-11 13:17:00,
2013-04-11 09:22:00,37.8,25.6,29.94,North,0,2.7,6.3,61,0.00,,,0.00,WUHU216HW,2013-04-11 13:22:00,
2013-04-11 09:27:00,38.2,26.7,29.95,NNE,23,0.4,6.3,63,0.00,,,0.00,WUHU216HW,2013-04-11 13:27:00,
2013-04-11 09:32:00,38.5,25.8,29.94,NNE,23,1.8,5.4,60,0.00,,,0.00,WUHU216HW,2013-04-11 13:32:00,
2013-04-11 09:37:00,38.5,25.8,29.95,NNE,23,2.2,5.4,60,0.00,,,0.00,WUHU216HW,2013-04-11 13:37:00,
2013-04-11 09:42:00,38.7,26.4,29.94,ENE,68,0.4,5.8,61,0.00,,,0.00,WUHU216HW,2013-04-11 13:42:00,
2013-04-11 09:47:00,39.1,26.6,29.94,NNW,338,2.2,5.8,61,0.00,,,0.00,WUHU216HW,2013-04-11 13:47:00,
2013-04-11 09:53:00,39.2,26.0,29.94,North,0,2.7,5.4,59,0.00,,,0.00,WUHU216HW,2013-04-11 13:53:00,
2013-04-11 09:58:00,39.4,25.7,29.94,NNW,338,2.2,6.7,58,0.00,,,0.00,WUHU216HW,2013-04-11 13:58:00,
2013-04-11 10:03:00,40.0,25.4,29.94,NNW,338,2.0,6.7,56,0.00,,,0.00,WUHU216HW,2013-04-11 14:03:00,
2013-04-11 10:08:00,40.3,26.6,29.95,NNW,338,6.3,6.3,58,0.00,,,0.00,WUHU216HW,2013-04-11 14:08:00,
2013-04-11 10:13:00,40.7,26.1,29.95,NW,315,2.5,6.7,56,0.00,,,0.00,WUHU216HW,2013-04-11 14:13:00,
2013-04-11 10:18:00,41.8,28.0,29.95,NE,45,1.8,6.7,58,0.00,,,0.00,WUHU216HW,2013-04-11 14:18:00,
2013-04-11 10:23:00,42.1,27.5,29.95,NNE,23,0.4,4.7,56,0.00,,,0.00,WUHU216HW,2013-04-11 14:23:00,
2013-04-11 10:28:00,42.5,26.6,29.95,East,90,1.3,6.9,53,0.00,,,0.00,WUHU216HW,2013-04-11 14:28:00,
2013-04-11 10:33:00,42.3,25.0,29.95,North,0,3.4,6.9,50,0.00,,,0.00,WUHU216HW,2013-04-11 14:33:00,
2013-04-11 10:38:00,41.8,26.3,29.95,North,0,4.5,5.8,54,0.00,,,0.00,WUHU216HW,2013-04-11 14:38:00,
2013-04-11 10:43:00,41.8,23.9,29.95,NNE,23,0.4,5.8,49,0.00,,,0.00,WUHU216HW,2013-04-11 14:43:00,
2013-04-11 10:48:00,42.5,25.7,29.95,NW,315,1.6,4.7,51,0.00,,,0.00,WUHU216HW,2013-04-11 14:48:00,
2013-04-11 10:53:00,42.3,25.0,29.95,NNW,338,0.9,4.5,50,0.00,,,0.00,WUHU216HW,2013-04-11 14:53:00,
2013-04-11 10:58:00,42.8,26.0,29.96,ENE,68,4.7,4.7,51,0.00,,,0.00,WUHU216HW,2013-04-11 14:58:00,
2013-04-11 11:03:00,42.8,26.8,29.96,East,90,2.5,4.7,53,0.00,,,0.00,WUHU216HW,2013-04-11 15:03:00,
2013-04-11 11:08:00,43.4,26.5,29.96,North,0,1.3,4.7,51,0.00,,,0.00,WUHU216HW,2013-04-11 15:08:00,
2013-04-11 11:13:00,43.6,26.6,29.96,North,0,4.0,4.3,51,0.00,,,0.00,WUHU216HW,2013-04-11 15:13:00,
2013-04-11 11:18:00,43.4,26.0,29.96,North,0,4.3,4.7,50,0.00,,,0.00,WUHU216HW,2013-04-11 15:18:00,
2013-04-11 11:23:00,43.2,26.3,29.96,North,0,5.8,7.6,51,0.00,,,0.00,WUHU216HW,2013-04-11 15:23:00,
2013-04-11 11:28:00,42.8,25.0,29.97,North,0,5.4,8.1,49,0.00,,,0.00,WUHU216HW,2013-04-11 15:28:00,
2013-04-11 11:33:00,42.3,25.0,29.97,North,0,6.3,10.1,50,0.00,,,0.00,WUHU216HW,2013-04-11 15:33:00,
2013-04-11 11:38:00,42.8,25.0,29.98,North,0,3.6,10.1,49,0.00,,,0.00,WUHU216HW,2013-04-11 15:38:00,
2013-04-11 11:44:00,42.8,26.0,29.98,NNW,338,5.6,6.5,51,0.00,,,0.00,WUHU216HW,2013-04-11 15:44:00,
2013-04-11 11:49:00,42.7,25.4,29.98,North,0,3.4,7.2,50,0.00,,,0.00,WUHU216HW,2013-04-11 15:49:00,
2013-04-11 11:54:00,43.2,25.4,29.98,NNE,23,3.6,7.2,49,0.00,,,0.00,WUHU216HW,2013-04-11 15:54:00,
2013-04-11 11:59:00,43.0,26.2,29.98,North,0,2.0,5.4,51,0.00,,,0.00,WUHU216HW,2013-04-11 15:59:00,
2013-04-11 12:04:00,42.7,25.8,29.98,North,0,4.7,6.3,51,0.00,,,0.00,WUHU216HW,2013-04-11 16:04:00,
2013-04-11 12:09:00,42.7,24.8,29.98,North,0,6.0,6.9,49,0.00,,,0.00,WUHU216HW,2013-04-11 16:09:00,
2013-04-11 12:14:00,42.7,24.3,29.98,NNW,338,4.0,6.9,48,0.00,,,0.00,WUHU216HW,2013-04-11 16:14:00,
2013-04-11 12:19:00,42.7,24.8,29.99,North,0,2.5,5.6,49,0.00,,,0.00,WUHU216HW,2013-04-11 16:19:00,
2013-04-11 12:24:00,42.7,23.2,29.99,North,0,5.1,8.7,46,0.00,,,0.00,WUHU216HW,2013-04-11 16:24:00,
2013-04-11 12:29:00,42.5,23.6,29.99,North,0,6.3,8.7,47,0.00,,,0.00,WUHU216HW,2013-04-11 16:29:00,
2013-04-11 12:34:00,42.3,22.9,29.99,North,0,2.5,6.9,46,0.00,,,0.00,WUHU216HW,2013-04-11 16:34:00,
2013-04-11 12:39:00,42.3,23.4,29.99,East,90,3.4,7.2,47,0.00,,,0.00,WUHU216HW,2013-04-11 16:39:00,
2013-04-11 12:44:00,42.1,23.8,29.98,North,0,5.8,7.2,48,0.00,,,0.00,WUHU216HW,2013-04-11 16:44:00,
2013-04-11 12:49:00,42.1,23.8,29.99,North,0,2.7,8.9,48,0.00,,,0.00,WUHU216HW,2013-04-11 16:49:00,
2013-04-11 12:54:00,42.1,23.8,29.98,North,0,3.1,8.9,48,0.00,,,0.00,WUHU216HW,2013-04-11 16:54:00,
2013-04-11 12:59:00,42.3,24.5,29.98,North,0,2.5,7.4,49,0.00,,,0.00,WUHU216HW,2013-04-11 16:59:00,
2013-04-11 13:04:00,42.5,25.2,29.98,NNW,338,5.4,7.4,50,0.00,,,0.00,WUHU216HW,2013-04-11 17:04:00,
2013-04-11 13:09:00,42.7,25.4,29.98,North,0,3.8,5.4,50,0.00,,,0.00,WUHU216HW,2013-04-11 17:09:00,
2013-04-11 13:14:00,43.0,24.7,29.98,North,0,2.0,5.4,48,0.00,,,0.00,WUHU216HW,2013-04-11 17:14:00,
2013-04-11 13:19:00,43.2,24.9,29.98,East,90,2.0,4.9,48,0.00,,,0.00,WUHU216HW,2013-04-11 17:19:00,
2013-04-11 13:24:00,43.2,24.3,29.98,SE,135,1.1,4.9,47,0.00,,,0.00,WUHU216HW,2013-04-11 17:24:00,
2013-04-11 13:29:00,43.2,23.8,29.98,NNW,338,1.8,4.7,46,0.00,,,0.00,WUHU216HW,2013-04-11 17:29:00,
2013-04-11 13:34:00,42.5,23.0,29.98,North,0,6.5,8.7,46,0.00,,,0.00,WUHU216HW,2013-04-11 17:34:00,
2013-04-11 13:39:00,42.3,23.9,29.98,North,0,5.6,8.7,48,0.00,,,0.00,WUHU216HW,2013-04-11 17:39:00,
2013-04-11 13:44:00,42.5,24.1,29.99,NNW,338,2.5,8.7,48,0.00,,,0.00,WUHU216HW,2013-04-11 17:44:00,
2013-04-11 13:49:00,42.5,24.1,29.99,NNE,23,5.1,6.9,48,0.00,,,0.00,WUHU216HW,2013-04-11 17:49:00,
2013-04-11 13:54:00,42.5,23.0,29.99,North,0,5.4,6.9,46,0.00,,,0.00,WUHU216HW,2013-04-11 17:54:00,
2013-04-11 13:59:00,42.1,22.7,29.99,NNW,338,4.3,6.9,46,0.00,,,0.00,WUHU216HW,2013-04-11 17:59:00,
2013-04-11 14:04:00,41.9,21.5,29.99,North,0,4.7,7.6,44,0.00,,,0.00,WUHU216HW,2013-04-11 18:04:00,
2013-04-11 14:09:00,41.8,21.9,29.99,NNW,338,3.8,7.8,45,0.00,,,0.00,WUHU216HW,2013-04-11 18:09:00,
2013-04-11 14:15:00,41.8,21.9,29.99,NNW,338,2.7,7.8,45,0.00,,,0.00,WUHU216HW,2013-04-11 18:15:00,
2013-04-11 14:20:00,41.8,21.3,29.99,North,0,6.0,6.3,44,0.00,,,0.00,WUHU216HW,2013-04-11 18:20:00,
2013-04-11 14:25:00,41.8,20.3,30.00,North,0,4.0,6.5,42,0.00,,,0.00,WUHU216HW,2013-04-11 18:25:00,
2013-04-11 14:30:00,41.8,21.3,30.00,North,0,2.5,6.5,44,0.00,,,0.00,WUHU216HW,2013-04-11 18:30:00,
2013-04-11 14:35:00,41.9,21.0,29.99,North,0,2.5,6.5,43,0.00,,,0.00,WUHU216HW,2013-04-11 18:35:00,
2013-04-11 14:40:00,41.8,20.3,29.97,North,0,3.8,8.1,42,0.00,,,0.00,WUHU216HW,2013-04-11 18:40:00,
2013-04-11 14:45:00,41.9,19.9,29.97,NNE,23,1.6,9.2,41,0.00,,,0.00,WUHU216HW,2013-04-11 18:45:00,
2013-04-11 14:50:00,42.1,20.1,29.98,North,0,2.5,9.2,41,0.00,,,0.00,WUHU216HW,2013-04-11 18:50:00,
2013-04-11 14:55:00,42.3,19.0,29.97,ENE,68,1.1,7.2,39,0.00,,,0.00,WUHU216HW,2013-04-11 18:55:00,
2013-04-11 15:00:00,42.8,18.8,29.97,North,0,1.1,4.7,38,0.00,,,0.00,WUHU216HW,2013-04-11 19:00:00,
2013-04-11 15:05:00,42.8,18.2,29.97,NNE,23,4.0,5.4,37,0.00,,,0.00,WUHU216HW,2013-04-11 19:05:00,
2013-04-11 15:10:00,42.3,17.0,29.97,NNW,338,2.7,6.0,36,0.00,,,0.00,WUHU216HW,2013-04-11 19:10:00,
2013-04-11 15:15:00,42.3,16.4,29.96,North,0,3.6,7.2,35,0.00,,,0.00,WUHU216HW,2013-04-11 19:15:00,
2013-04-11 15:20:00,42.3,18.4,29.97,North,0,2.2,7.2,38,0.00,,,0.00,WUHU216HW,2013-04-11 19:20:00,
2013-04-11 15:25:00,42.1,17.6,29.96,North,0,3.4,5.4,37,0.00,,,0.00,WUHU216HW,2013-04-11 19:25:00,
2013-04-11 15:30:00,42.1,18.2,29.96,NNW,338,3.6,6.5,38,0.00,,,0.00,WUHU216HW,2013-04-11 19:30:00,
2013-04-11 15:35:00,42.1,19.5,29.96,NNW,338,3.4,6.5,40,0.00,,,0.00,WUHU216HW,2013-04-11 19:35:00,
2013-04-11 15:40:00,42.3,19.7,29.97,NNW,338,5.4,6.9,40,0.00,,,0.00,WUHU216HW,2013-04-11 19:40:00,
2013-04-11 15:45:00,42.1,19.5,29.96,North,0,4.9,6.9,40,0.00,,,0.00,WUHU216HW,2013-04-11 19:45:00,
2013-04-11 15:50:00,41.9,19.9,29.97,North,0,3.8,6.5,41,0.00,,,0.00,WUHU216HW,2013-04-11 19:50:00,
2013-04-11 15:55:00,41.6,20.1,29.96,North,0,2.7,6.7,42,0.00,,,0.00,WUHU216HW,2013-04-11 19:55:00,
2013-04-11 16:00:00,41.6,20.1,29.97,NW,315,6.0,8.1,42,0.00,,,0.00,WUHU216HW,2013-04-11 20:00:00,
2013-04-11 16:05:00,41.6,20.1,29.97,NNW,338,4.0,8.1,42,0.00,,,0.00,WUHU216HW,2013-04-11 20:05:00,
2013-04-11 16:10:00,41.4,19.9,29.97,North,0,6.5,7.2,42,0.00,,,0.00,WUHU216HW,2013-04-11 20:10:00,
2013-04-11 16:15:00,41.8,20.8,29.97,North,0,4.5,8.5,43,0.00,,,0.00,WUHU216HW,2013-04-11 20:15:00,
2013-04-11 16:20:00,41.4,19.4,29.97,NNW,338,6.3,9.8,41,0.00,,,0.00,WUHU216HW,2013-04-11 20:20:00,
2013-04-11 16:25:00,41.0,20.1,29.97,North,0,6.0,9.8,43,0.00,,,0.00,WUHU216HW,2013-04-11 20:25:00,
2013-04-11 16:30:00,41.0,20.1,29.98,NNW,338,9.2,9.2,43,0.00,,,0.00,WUHU216HW,2013-04-11 20:30:00,
2013-04-11 16:36:00,41.2,20.8,29.98,North,0,2.5,9.2,44,0.00,,,0.00,WUHU216HW,2013-04-11 20:36:00,
2013-04-11 16:41:00,41.2,20.8,29.98,North,0,7.6,7.6,44,0.00,,,0.00,WUHU216HW,2013-04-11 20:41:00,
2013-04-11 16:46:00,41.0,20.6,29.99,North,0,4.3,10.5,44,0.00,,,0.00,WUHU216HW,2013-04-11 20:46:00,
2013-04-11 16:51:00,41.0,20.6,29.98,ENE,68,1.8,10.5,44,0.00,,,0.00,WUHU216HW,2013-04-11 20:51:00,
2013-04-11 16:56:00,41.2,20.8,29.99,North,0,4.3,5.8,44,0.00,,,0.00,WUHU216HW,2013-04-11 20:56:00,
2013-04-11 17:01:00,41.0,20.1,29.99,NNW,338,4.0,7.6,43,0.00,,,0.00,WUHU216HW,2013-04-11 21:01:00,
2013-04-11 17:06:00,41.0,21.2,30.00,North,0,3.1,7.6,45,0.00,,,0.00,WUHU216HW,2013-04-11 21:06:00,
2013-04-11 17:11:00,41.0,21.2,30.00,NNW,338,6.0,6.9,45,0.00,,,0.00,WUHU216HW,2013-04-11 21:11:00,
2013-04-11 17:17:00,41.0,21.2,30.00,NNW,338,4.0,7.8,45,0.00,,,0.00,WUHU216HW,2013-04-11 21:17:00,
2013-04-11 17:22:00,41.0,20.6,30.00,North,0,3.4,8.5,44,0.00,,,0.00,WUHU216HW,2013-04-11 21:22:00,
2013-04-11 17:27:00,41.0,20.6,30.00,North,0,4.9,8.5,44,0.00,,,0.00,WUHU216HW,2013-04-11 21:27:00,
2013-04-11 17:32:00,41.2,20.3,30.00,North,0,9.6,9.6,43,0.00,,,0.00,WUHU216HW,2013-04-11 21:32:00,
2013-04-11 17:37:00,40.9,20.0,30.00,North,0,5.4,9.6,43,0.00,,,0.00,WUHU216HW,2013-04-11 21:37:00,
2013-04-11 17:42:00,40.9,20.4,30.01,North,0,5.4,9.2,44,0.00,,,0.00,WUHU216HW,2013-04-11 21:42:00,
2013-04-11 17:47:00,40.9,20.0,30.01,North,0,5.4,9.2,43,0.00,,,0.00,WUHU216HW,2013-04-11 21:47:00,
2013-04-11 17:52:00,41.0,20.6,30.00,NNW,338,2.9,6.9,44,0.00,,,0.00,WUHU216HW,2013-04-11 21:52:00,
2013-04-11 17:57:00,41.0,20.6,30.00,NNW,338,5.1,6.0,44,0.00,,,0.00,WUHU216HW,2013-04-11 21:57:00,
2013-04-11 18:02:00,40.9,20.0,30.00,NNW,338,4.3,6.0,43,0.00,,,0.00,WUHU216HW,2013-04-11 22:02:00,
2013-04-11 18:07:00,40.7,19.8,30.00,North,0,1.8,6.0,43,0.00,,,0.00,WUHU216HW,2013-04-11 22:07:00,
2013-04-11 18:12:00,40.9,20.0,30.00,North,0,2.0,5.4,43,0.00,,,0.00,WUHU216HW,2013-04-11 22:12:00,
2013-04-11 18:17:00,40.7,20.4,30.00,NNW,338,4.0,5.4,44,0.00,,,0.00,WUHU216HW,2013-04-11 22:17:00,
2013-04-11 18:22:00,40.7,19.8,30.00,NNW,338,3.6,5.4,43,0.00,,,0.00,WUHU216HW,2013-04-11 22:22:00,
2013-04-11 18:27:00,40.5,20.2,30.01,NNW,338,2.2,5.4,44,0.00,,,0.00,WUHU216HW,2013-04-11 22:27:00,
2013-04-11 18:32:00,40.3,17.3,30.01,NNE,23,6.3,6.5,39,0.00,,,0.00,WUHU216HW,2013-04-11 22:32:00,
2013-04-11 18:37:00,40.1,18.8,30.01,NW,315,2.5,6.5,42,0.00,,,0.00,WUHU216HW,2013-04-11 22:37:00,
2013-04-11 18:42:00,40.3,18.9,30.01,North,0,2.5,6.3,42,0.00,,,0.00,WUHU216HW,2013-04-11 22:42:00,
2013-04-11 18:47:00,40.0,18.6,30.01,North,0,1.8,5.4,42,0.00,,,0.00,WUHU216HW,2013-04-11 22:47:00,
2013-04-11 18:52:00,39.8,17.9,30.01,North,0,2.2,5.8,41,0.00,,,0.00,WUHU216HW,2013-04-11 22:52:00,
2013-04-11 18:57:00,39.8,19.5,30.01,NNW,338,4.0,5.8,44,0.00,,,0.00,WUHU216HW,2013-04-11 22:57:00,
2013-04-11 19:02:00,39.8,19.0,30.02,NNW,338,1.8,5.4,43,0.00,,,0.00,WUHU216HW,2013-04-11 23:02:00,
2013-04-11 19:08:00,39.8,19.5,30.02,NNW,338,1.8,5.4,44,0.00,,,0.00,WUHU216HW,2013-04-11 23:08:00,
2013-04-11 19:13:00,39.4,19.7,30.03,North,0,2.5,3.8,45,0.00,,,0.00,WUHU216HW,2013-04-11 23:13:00,
2013-04-11 19:18:00,39.2,19.5,30.02,NNW,338,3.8,3.8,45,0.00,,,0.00,WUHU216HW,2013-04-11 23:18:00,
2013-04-11 19:23:00,39.2,19.5,30.02,NNW,338,1.1,3.8,45,0.00,,,0.00,WUHU216HW,2013-04-11 23:23:00,
2013-04-11 19:28:00,39.1,20.4,30.02,NNW,338,0.9,3.1,47,0.00,,,0.00,WUHU216HW,2013-04-11 23:28:00,
2013-04-11 19:33:00,38.9,20.3,30.01,NW,315,3.8,3.8,47,0.00,,,0.00,WUHU216HW,2013-04-11 23:33:00,
2013-04-11 19:38:00,38.7,20.1,30.02,NNW,338,1.1,3.8,47,0.00,,,0.00,WUHU216HW,2013-04-11 23:38:00,
2013-04-11 19:43:00,38.5,21.0,30.01,NNW,338,1.8,3.6,49,0.00,,,0.00,WUHU216HW,2013-04-11 23:43:00,
2013-04-11 19:48:00,38.5,20.4,30.01,NNW,338,2.2,3.8,48,0.00,,,0.00,WUHU216HW,2013-04-11 23:48:00,
2013-04-11 19:53:00,38.5,20.4,30.01,North,0,3.8,3.8,48,0.00,,,0.00,WUHU216HW,2013-04-11 23:53:00,
2013-04-11 19:58:00,38.5,19.9,30.01,NNW,338,1.1,6.3,47,0.00,,,0.00,WUHU216HW,2013-04-11 23:58:00,
2013-04-11 20:03:00,38.5,20.4,30.02,North,0,2.9,6.3,48,0.00,,,0.00,WUHU216HW,2013-04-12 00:03:00,
2013-04-11 20:08:00,38.5,19.9,30.01,NNW,338,1.1,6.0,47,0.00,,,0.00,WUHU216HW,2013-04-12 00:08:00,
2013-04-11 20:13:00,38.5,20.4,30.02,North,0,1.6,6.0,48,0.00,,,0.00,WUHU216HW,2013-04-12 00:13:00,
2013-04-11 20:18:00,38.3,20.3,30.02,North,0,2.2,2.9,48,0.00,,,0.00,WUHU216HW,2013-04-12 00:18:00,
2013-04-11 20:23:00,38.2,20.6,30.02,NNW,338,2.5,3.1,49,0.00,,,0.00,WUHU216HW,2013-04-12 00:23:00,
2013-04-11 20:28:00,38.2,20.6,30.03,NNW,338,2.5,3.1,49,0.00,,,0.00,WUHU216HW,2013-04-12 00:28:00,
2013-04-11 20:33:00,38.0,20.5,30.03,WNW,293,4.9,4.9,49,0.00,,,0.00,WUHU216HW,2013-04-12 00:33:00,
2013-04-11 20:38:00,38.2,20.6,30.03,North,0,1.1,4.9,49,0.00,,,0.00,WUHU216HW,2013-04-12 00:38:00,
2013-04-11 20:43:00,38.0,20.0,30.03,NW,315,3.6,5.6,48,0.00,,,0.00,WUHU216HW,2013-04-12 00:43:00,
2013-04-11 20:48:00,38.0,20.5,30.03,North,0,1.8,5.6,49,0.00,,,0.00,WUHU216HW,2013-04-12 00:48:00,
2013-04-11 20:53:00,37.8,19.8,30.03,North,0,1.1,4.7,48,0.00,,,0.00,WUHU216HW,2013-04-12 00:53:00,
2013-04-11 20:58:00,37.8,20.9,30.04,NNW,338,4.3,4.7,50,0.00,,,0.00,WUHU216HW,2013-04-12 00:58:00,
2013-04-11 21:03:00,37.8,20.9,30.04,NW,315,4.3,4.7,50,0.00,,,0.00,WUHU216HW,2013-04-12 01:03:00,
2013-04-11 21:08:00,37.6,20.2,30.05,NNW,338,1.8,5.1,49,0.00,,,0.00,WUHU216HW,2013-04-12 01:08:00,
2013-04-11 21:13:00,37.6,20.2,30.05,North,0,3.4,5.1,49,0.00,,,0.00,WUHU216HW,2013-04-12 01:13:00,
2013-04-11 21:18:00,37.6,20.7,30.05,NNW,338,1.1,4.5,50,0.00,,,0.00,WUHU216HW,2013-04-12 01:18:00,
2013-04-11 21:23:00,37.4,20.0,30.05,North,0,2.0,4.0,49,0.00,,,0.00,WUHU216HW,2013-04-12 01:23:00,
2013-04-11 21:28:00,37.4,20.0,30.05,NNE,23,3.6,4.0,49,0.00,,,0.00,WUHU216HW,2013-04-12 01:28:00,
2013-04-11 21:33:00,37.3,20.3,30.05,North,0,3.4,4.0,50,0.00,,,0.00,WUHU216HW,2013-04-12 01:33:00,
2013-04-11 21:38:00,37.3,19.4,30.05,North,0,1.3,3.6,48,0.00,,,0.00,WUHU216HW,2013-04-12 01:38:00,
2013-04-11 21:43:00,37.3,20.3,30.05,North,0,2.7,3.6,50,0.00,,,0.00,WUHU216HW,2013-04-12 01:43:00,
2013-04-11 21:48:00,37.1,19.7,30.05,North,0,3.4,4.0,49,0.00,,,0.00,WUHU216HW,2013-04-12 01:48:00,
2013-04-11 21:53:00,37.1,19.2,30.05,NNW,338,1.8,4.0,48,0.00,,,0.00,WUHU216HW,2013-04-12 01:53:00,
2013-04-11 21:58:00,37.1,19.7,30.05,NNW,338,2.5,3.8,49,0.00,,,0.00,WUHU216HW,2013-04-12 01:58:00,
2013-04-11 22:03:00,36.9,19.0,30.05,North,0,2.5,3.8,48,0.00,,,0.00,WUHU216HW,2013-04-12 02:03:00,
2013-04-11 22:08:00,36.9,19.5,30.06,NNW,338,2.2,3.8,49,0.00,,,0.00,WUHU216HW,2013-04-12 02:08:00,
2013-04-11 22:13:00,36.9,19.5,30.06,NW,315,1.1,4.0,49,0.00,,,0.00,WUHU216HW,2013-04-12 02:13:00,
2013-04-11 22:18:00,36.7,19.4,30.06,NNW,338,4.7,4.7,49,0.00,,,0.00,WUHU216HW,2013-04-12 02:18:00,
2013-04-11 22:23:00,36.7,19.4,30.05,North,0,3.1,4.7,49,0.00,,,0.00,WUHU216HW,2013-04-12 02:23:00,
2013-04-11 22:28:00,36.7,18.8,30.05,North,0,2.7,4.9,48,0.00,,,0.00,WUHU216HW,2013-04-12 02:28:00,
2013-04-11 22:33:00,36.5,19.2,30.05,North,0,1.8,5.8,49,0.00,,,0.00,WUHU216HW,2013-04-12 02:33:00,
2013-04-11 22:38:00,36.5,19.7,30.05,NNW,338,2.7,5.8,50,0.00,,,0.00,WUHU216HW,2013-04-12 02:38:00,
2013-04-11 22:43:00,36.5,19.7,30.05,North,0,3.4,5.1,50,0.00,,,0.00,WUHU216HW,2013-04-12 02:43:00,
2013-04-11 22:48:00,36.5,18.6,30.05,NW,315,2.9,6.0,48,0.00,,,0.00,WUHU216HW,2013-04-12 02:48:00,
2013-04-11 22:53:00,36.5,19.2,30.06,NNW,338,2.5,6.0,49,0.00,,,0.00,WUHU216HW,2013-04-12 02:53:00,
2013-04-11 22:58:00,36.4,19.5,30.06,WNW,293,2.2,3.6,50,0.00,,,0.00,WUHU216HW,2013-04-12 02:58:00,
2013-04-11 23:03:00,36.4,19.5,30.06,NNW,338,3.4,3.6,50,0.00,,,0.00,WUHU216HW,2013-04-12 03:03:00,
2013-04-11 23:08:00,36.4,19.5,30.06,NNW,338,2.0,3.4,50,0.00,,,0.00,WUHU216HW,2013-04-12 03:08:00,
2013-04-11 23:13:00,36.4,19.5,30.06,NNW,338,1.8,3.1,50,0.00,,,0.00,WUHU216HW,2013-04-12 03:13:00,
2013-04-11 23:18:00,36.4,20.0,30.06,North,0,1.1,3.6,51,0.00,,,0.00,WUHU216HW,2013-04-12 03:18:00,
2013-04-11 23:24:00,36.2,19.4,30.06,North,0,1.1,3.6,50,0.00,,,0.00,WUHU216HW,2013-04-12 03:24:00,
2013-04-11 23:29:00,36.2,19.8,30.06,NNW,338,1.1,2.0,51,0.00,,,0.00,WUHU216HW,2013-04-12 03:29:00,
2013-04-11 23:34:00,36.2,19.8,30.07,NW,315,2.5,3.8,51,0.00,,,0.00,WUHU216HW,2013-04-12 03:34:00,
2013-04-11 23:39:00,36.2,19.8,30.07,NNW,338,2.0,3.8,51,0.00,,,0.00,WUHU216HW,2013-04-12 03:39:00,
2013-04-11 23:44:00,36.2,19.8,30.07,North,0,0.7,3.4,51,0.00,,,0.00,WUHU216HW,2013-04-12 03:44:00,
2013-04-11 23:49:00,36.2,20.7,30.07,NNW,338,1.1,2.9,53,0.00,,,0.00,WUHU216HW,2013-04-12 03:49:00,
2013-04-11 23:54:00,36.0,20.5,30.08,NNW,338,1.1,2.5,53,0.00,,,0.00,WUHU216HW,2013-04-12 03:54:00,
2013-04-11 23:59:00,36.0,20.1,30.07,NNW,338,1.8,2.0,52,0.00,,,0.00,WUHU216HW,2013-04-12 03:59:00,